aviador You're here:

LFBY Decoded Metar

DAX in FRANCE
Report Time2017-08-24 06:30:00
UTC Time2017-08-24 06:58:14
Flight Rules unknown UNKNOWN
WindCalm
VisibilityN/A
Phenomena:N/A
Clouds:N/A
CeilingNone
Temp19°C (ISA +4)
Dew Point19°C (100% RH)
QNH1016 hPa
Density Alt787 ft
Elevation105 ft
Report Wrong Elevation
Raw Report
METAR LFBY 240630Z AUTO 00000KT //// // ////// 19/19 Q1016=

Extra information for LFBY:More info

Metar Taf Metar & Taf Last 4 Metars F.Rules Stats Wind Profile Meteogram Temp Stats Airport Information Weather charts Add Link Nearby VenuesMetar ALERT Operation Metar Decoded Social comments